Aviation Digital Data Service (ADDS)

Output produced by METARs form (0342 UTC 07 June 2020)
found at http://aviationweather.gov/metar/data/
 
METAR text: KRFD 070254Z 08009KT 10SM OVC250 18/10 A3009 RMK AO2 SLP187 T01830100 50016 $
Conditions at: KRFD (ROCKFORD , IL, US) observed 0254 UTC 07 June 2020
Temperature: 18.3°C (65°F)
Dewpoint: 10.0°C (50°F) [RH = 58%]
Pressure (altimeter): 30.09 inches Hg (1019.0 mb)
[Sea-level pressure: 1018.7 mb]
Winds: from the E (80 degrees) at 10 MPH (9 knots; 4.6 m/s)
Visibility: 10 or more miles (16+ km)
Ceiling: 25000 feet AGL
Clouds: overcast cloud deck at 25000 feet AGL
Weather:
SOME DATA ABOVE MAY BE INACCURATE!!!
"$" is an indication the sensor requires maintenance

Forecast for: KRFD (ROCKFORD , IL, US)
Text: KRFD 062330Z 0700/0724 10006KT P6SM SCT250
Forecast period: 0000 UTC 07 June 2020 to 0000 UTC 08 June 2020
Forecast type: FROM: standard forecast or significant change
Winds: from the E (100 degrees) at 7 MPH (6 knots; 3.1 m/s)
Visibility: 6 or more miles 10+ km)
Ceiling: at least 12,000 feet AGL
Clouds: scattered clouds at 25000 feet AGL
Weather: no significant weather forecast for this period